createdAt,value
2018-07-04T00:01:33.614Z,16.70
2018-07-04T00:04:20.351Z,16.70
2018-07-04T00:10:07.311Z,16.70
2018-07-04T00:12:54.091Z,16.60
2018-07-04T00:15:41.027Z,16.60
2018-07-04T00:18:27.802Z,16.60
2018-07-04T00:21:14.504Z,16.60
2018-07-04T00:24:01.172Z,16.50
2018-07-04T00:26:54.700Z,16.60
2018-07-04T00:29:41.415Z,16.60
2018-07-04T00:32:28.363Z,16.60
2018-07-04T00:35:15.109Z,16.70
2018-07-04T00:38:01.800Z,16.60
2018-07-04T00:40:48.584Z,16.60
2018-07-04T00:43:35.402Z,16.60
2018-07-04T00:46:22.213Z,16.60
2018-07-04T00:49:08.860Z,16.50
2018-07-04T00:51:55.668Z,16.50
2018-07-04T00:54:42.443Z,16.40
2018-07-04T00:57:29.305Z,16.30
2018-07-04T01:00:16.395Z,16.40
2018-07-04T01:03:03.184Z,16.40
2018-07-04T01:05:49.819Z,16.50
2018-07-04T01:08:36.420Z,16.50
2018-07-04T01:11:23.071Z,16.60
2018-07-04T01:14:10.821Z,16.60
2018-07-04T01:16:57.645Z,16.60
2018-07-04T01:19:44.446Z,16.60
2018-07-04T01:22:31.295Z,16.50
2018-07-04T01:25:18.071Z,16.50
2018-07-04T01:28:04.835Z,16.40
2018-07-04T01:30:51.623Z,16.50
2018-07-04T01:33:38.387Z,16.40
2018-07-04T01:36:25.080Z,16.40
2018-07-04T01:39:11.815Z,16.40
2018-07-04T01:41:58.533Z,16.40
2018-07-04T01:44:45.371Z,16.40
2018-07-04T01:47:32.000Z,16.30
2018-07-04T01:50:18.807Z,16.30
2018-07-04T01:53:05.539Z,16.30
2018-07-04T01:55:53.799Z,16.30
2018-07-04T01:58:40.708Z,16.30
2018-07-04T02:01:27.250Z,16.20
2018-07-04T02:04:13.956Z,16.10
2018-07-04T02:07:01.213Z,16.10
2018-07-04T02:09:48.043Z,16.10
2018-07-04T02:12:36.095Z,16.00
2018-07-04T02:15:23.073Z,16.00
2018-07-04T02:18:14.456Z,16.00
2018-07-04T02:21:01.227Z,15.90
2018-07-04T02:23:47.981Z,15.70
2018-07-04T02:26:34.771Z,15.60
2018-07-04T02:29:21.655Z,15.50
2018-07-04T02:32:08.603Z,15.50
2018-07-04T02:35:00.307Z,15.60
2018-07-04T02:37:47.128Z,15.70
2018-07-04T02:40:33.839Z,15.70
2018-07-04T02:43:20.581Z,15.70
2018-07-04T02:46:09.462Z,15.70
2018-07-04T02:48:56.369Z,15.60
2018-07-04T02:51:43.311Z,15.60
2018-07-04T02:54:29.992Z,15.60
2018-07-04T02:57:16.664Z,15.60
2018-07-04T03:00:03.310Z,15.60
2018-07-04T03:05:30.883Z,15.50
2018-07-04T03:08:17.903Z,15.50
2018-07-04T03:11:04.200Z,15.50
2018-07-04T03:13:51.169Z,15.60
2018-07-04T03:16:37.569Z,15.60
2018-07-04T03:19:24.234Z,15.60
2018-07-04T03:24:51.406Z,15.70
2018-07-04T03:27:38.005Z,15.60
2018-07-04T03:30:31.720Z,15.60
2018-07-04T03:33:18.530Z,15.60
2018-07-04T03:36:05.162Z,15.60
2018-07-04T03:38:51.753Z,15.60
2018-07-04T03:41:38.509Z,15.60
2018-07-04T03:44:25.094Z,15.60
2018-07-04T03:47:11.746Z,15.70
2018-07-04T03:49:58.539Z,15.70
2018-07-04T03:52:52.050Z,15.80
2018-07-04T03:55:38.540Z,15.80
2018-07-04T03:58:25.088Z,15.80
2018-07-04T04:01:11.781Z,15.80
2018-07-04T04:03:58.426Z,15.80
2018-07-04T04:06:45.241Z,15.80
2018-07-04T04:09:31.681Z,15.90
2018-07-04T04:12:19.292Z,16.00
2018-07-04T04:15:05.917Z,16.00
2018-07-04T04:17:52.516Z,16.10
2018-07-04T04:20:39.146Z,16.10
2018-07-04T04:23:25.652Z,16.20
2018-07-04T04:26:12.626Z,16.40
2018-07-04T04:28:59.218Z,16.50
2018-07-04T04:31:45.958Z,16.70
2018-07-04T04:34:32.562Z,16.80
2018-07-04T04:37:19.297Z,16.90
2018-07-04T04:40:06.101Z,17.00
2018-07-04T04:42:52.421Z,17.10
2018-07-04T04:45:38.824Z,17.30
2018-07-04T04:48:28.249Z,17.40
2018-07-04T04:51:14.837Z,17.60
2018-07-04T04:54:01.491Z,17.90
2018-07-04T04:56:48.081Z,18.40
2018-07-04T04:59:34.882Z,18.80
2018-07-04T05:02:21.409Z,19.00
2018-07-04T05:05:08.063Z,19.00
2018-07-04T05:07:54.657Z,19.00
2018-07-04T05:10:41.302Z,18.90
2018-07-04T05:13:27.895Z,18.90
2018-07-04T05:16:14.533Z,19.00
2018-07-04T05:19:01.346Z,19.30
2018-07-04T05:21:48.199Z,19.30
2018-07-04T05:24:34.981Z,19.50
2018-07-04T05:27:21.621Z,19.50
2018-07-04T05:30:08.425Z,19.50
2018-07-04T05:32:55.177Z,19.40
2018-07-04T05:35:47.312Z,19.60
2018-07-04T05:38:33.867Z,19.70
2018-07-04T05:41:20.181Z,19.80
2018-07-04T05:44:06.886Z,20.00
2018-07-04T05:46:53.478Z,20.10
2018-07-04T05:49:40.129Z,20.00
2018-07-04T05:52:26.716Z,20.00
2018-07-04T05:55:13.270Z,20.10
2018-07-04T05:57:59.765Z,19.90
2018-07-04T06:00:46.447Z,19.90
2018-07-04T06:03:33.106Z,20.30
2018-07-04T06:06:19.922Z,20.50
2018-07-04T06:09:06.596Z,20.70
2018-07-04T06:11:53.290Z,20.80
2018-07-04T06:14:40.044Z,21.00
2018-07-04T06:17:26.757Z,21.20
2018-07-04T06:20:13.325Z,21.30
2018-07-04T06:23:00.054Z,22.20
2018-07-04T06:25:46.514Z,22.80
2018-07-04T06:28:33.223Z,23.20
2018-07-04T06:34:00.933Z,25.20
2018-07-04T06:36:47.518Z,25.80
2018-07-04T06:39:15.450Z,25.60
2018-07-04T06:44:43.759Z,26.90
2018-07-04T06:49:40.200Z,27.20
2018-07-04T06:52:08.194Z,27.00
2018-07-04T06:54:36.194Z,25.90
2018-07-04T06:57:22.312Z,25.50
2018-07-04T06:59:50.387Z,25.90
2018-07-04T07:02:19.454Z,26.50
2018-07-04T07:05:06.422Z,27.60
2018-07-04T07:07:53.183Z,27.70
2018-07-04T07:10:39.815Z,27.60
2018-07-04T07:13:26.446Z,27.30
2018-07-04T07:16:13.248Z,28.50
2018-07-04T07:18:59.851Z,29.40
2018-07-04T07:21:46.421Z,28.30
2018-07-04T07:24:32.930Z,28.40
2018-07-04T07:27:19.441Z,28.10
2018-07-04T07:30:05.963Z,27.50
2018-07-04T07:32:52.918Z,28.60
2018-07-04T07:35:39.512Z,28.70
2018-07-04T07:38:26.414Z,28.50
2018-07-04T07:41:13.388Z,27.40
2018-07-04T07:44:00.374Z,27.60
2018-07-04T07:46:48.021Z,27.60
2018-07-04T07:49:34.938Z,27.60
2018-07-04T07:52:21.529Z,27.40
2018-07-04T07:55:08.423Z,28.60
2018-07-04T07:57:55.513Z,29.10
2018-07-04T08:00:42.096Z,29.30
2018-07-04T08:03:28.678Z,29.20
2018-07-04T08:06:15.495Z,28.80
2018-07-04T08:09:02.594Z,29.00
2018-07-04T08:11:49.522Z,29.70
2018-07-04T08:14:40.078Z,29.10
2018-07-04T08:17:26.639Z,30.10
2018-07-04T08:20:13.541Z,28.70
2018-07-04T08:23:00.633Z,28.50
2018-07-04T08:25:47.499Z,27.90
2018-07-04T08:28:34.597Z,27.00
2018-07-04T08:31:21.616Z,25.60
2018-07-04T08:34:08.645Z,25.20
2018-07-04T08:36:55.285Z,25.80
2018-07-04T08:39:41.829Z,26.90
2018-07-04T08:42:28.645Z,27.10
2018-07-04T08:45:15.657Z,26.90
2018-07-04T08:48:02.771Z,27.00
2018-07-04T08:50:50.120Z,27.20
2018-07-04T08:53:40.227Z,27.20
2018-07-04T08:56:26.850Z,27.30
2018-07-04T08:59:13.831Z,27.00
2018-07-04T09:02:00.439Z,27.20
2018-07-04T09:04:47.447Z,27.60
2018-07-04T09:10:15.841Z,27.30
2018-07-04T09:13:02.874Z,27.40
2018-07-04T09:15:49.764Z,27.90
2018-07-04T09:18:36.486Z,28.00
2018-07-04T09:21:23.472Z,28.70
2018-07-04T09:24:10.131Z,29.10
2018-07-04T09:26:56.916Z,28.80
2018-07-04T09:29:43.892Z,28.40
2018-07-04T09:32:30.932Z,28.80
2018-07-04T09:35:18.070Z,28.60
2018-07-04T09:38:04.907Z,28.70
2018-07-04T09:40:51.949Z,29.00
2018-07-04T09:43:38.938Z,28.70
2018-07-04T09:46:25.581Z,28.00
2018-07-04T09:49:12.067Z,27.90
2018-07-04T09:51:58.949Z,27.20
2018-07-04T09:54:45.956Z,27.00
2018-07-04T09:57:32.585Z,26.70
2018-07-04T10:00:23.066Z,26.30
2018-07-04T10:03:10.781Z,25.80
2018-07-04T10:05:57.481Z,25.80
2018-07-04T10:08:44.138Z,25.70
2018-07-04T10:11:30.619Z,25.50
2018-07-04T10:14:17.534Z,25.30
2018-07-04T10:17:04.167Z,25.20
2018-07-04T10:19:50.809Z,24.80
2018-07-04T10:22:37.304Z,24.80
2018-07-04T10:25:24.018Z,25.20
2018-07-04T10:28:10.742Z,25.20
2018-07-04T10:30:57.298Z,24.90
2018-07-04T10:33:43.878Z,24.70
2018-07-04T10:36:30.534Z,24.80
2018-07-04T10:39:17.370Z,24.90
2018-07-04T10:44:44.565Z,24.50
2018-07-04T10:47:31.395Z,24.40
2018-07-04T10:50:18.086Z,24.50
2018-07-04T10:53:04.722Z,24.30
2018-07-04T10:55:51.302Z,24.30
2018-07-04T10:58:38.108Z,24.00
2018-07-04T11:01:24.811Z,23.80
2018-07-04T11:04:11.360Z,23.60
2018-07-04T11:06:58.112Z,23.60
2018-07-04T11:09:44.798Z,23.40
2018-07-04T11:12:31.458Z,23.40
2018-07-04T11:15:18.219Z,23.40
2018-07-04T11:18:04.886Z,23.30
2018-07-04T11:20:51.983Z,23.30
2018-07-04T11:23:38.602Z,23.20
2018-07-04T11:26:25.446Z,23.20
2018-07-04T11:29:12.082Z,23.20
2018-07-04T11:31:58.733Z,23.20
2018-07-04T11:34:45.377Z,23.10
2018-07-04T11:37:31.884Z,23.10
2018-07-04T11:40:18.470Z,23.00
2018-07-04T11:43:05.131Z,23.00
2018-07-04T11:45:51.656Z,23.30
2018-07-04T11:50:47.970Z,24.10
2018-07-04T11:53:16.157Z,24.40
2018-07-04T11:55:44.169Z,24.40
2018-07-04T11:58:12.027Z,24.50
2018-07-04T12:00:39.982Z,24.60
2018-07-04T12:03:23.128Z,24.90
2018-07-04T12:06:09.758Z,25.30
2018-07-04T12:08:37.712Z,26.40
2018-07-04T12:11:05.622Z,27.10
2018-07-04T12:13:33.502Z,28.10
2018-07-04T12:16:01.499Z,28.90
2018-07-04T12:18:29.468Z,29.50
2018-07-04T12:20:57.472Z,30.40
2018-07-04T12:23:25.613Z,31.50
2018-07-04T12:25:53.493Z,32.50
2018-07-04T12:28:21.387Z,33.80
2018-07-04T12:30:49.308Z,35.20
2018-07-04T12:33:17.249Z,36.10
2018-07-04T12:35:45.231Z,36.20
2018-07-04T12:38:13.154Z,36.50
2018-07-04T12:40:41.090Z,36.50
2018-07-04T12:43:08.974Z,34.90
2018-07-04T12:45:39.547Z,34.20
2018-07-04T12:48:04.884Z,34.00
2018-07-04T12:50:33.594Z,34.60
2018-07-04T12:53:01.658Z,35.30
2018-07-04T12:55:48.446Z,34.50
2018-07-04T12:58:34.978Z,35.10
2018-07-04T13:01:21.500Z,34.20
2018-07-04T13:04:08.375Z,33.20
2018-07-04T13:06:55.142Z,35.30
2018-07-04T13:09:41.759Z,35.10
2018-07-04T13:12:28.495Z,36.00
2018-07-04T13:15:15.176Z,34.30
2018-07-04T13:18:01.813Z,34.40
2018-07-04T13:20:48.493Z,34.60
2018-07-04T13:23:34.865Z,34.20
2018-07-04T13:26:21.496Z,34.80
2018-07-04T13:34:36.720Z,37.50
2018-07-04T13:37:23.465Z,37.80
2018-07-04T13:40:10.003Z,37.10
2018-07-04T13:42:56.711Z,37.00
2018-07-04T13:48:24.220Z,37.80
2018-07-04T13:51:10.909Z,38.20
2018-07-04T13:53:57.653Z,36.40
2018-07-04T13:59:24.662Z,37.80
2018-07-04T14:02:11.342Z,37.30
2018-07-04T14:04:57.947Z,36.80
2018-07-04T14:07:44.506Z,35.80
2018-07-04T14:10:31.396Z,35.00
2018-07-04T14:13:21.586Z,35.40
2018-07-04T14:16:08.316Z,35.30
2018-07-04T14:21:56.066Z,35.40
2018-07-04T14:24:42.643Z,36.80
2018-07-04T14:27:29.310Z,34.60
2018-07-04T14:30:16.023Z,33.60
2018-07-04T14:33:02.630Z,32.30
2018-07-04T14:35:51.470Z,30.90
2018-07-04T14:38:38.173Z,31.40
2018-07-04T14:41:24.712Z,32.90
2018-07-04T14:44:11.361Z,32.80
2018-07-04T14:46:57.984Z,33.30
2018-07-04T14:49:44.450Z,34.70
2018-07-04T14:52:31.137Z,35.10
2018-07-04T14:57:58.597Z,33.90
2018-07-04T15:00:45.237Z,34.40
2018-07-04T15:03:31.922Z,34.20
2018-07-04T15:06:18.544Z,33.70
2018-07-04T15:09:05.277Z,33.90
2018-07-04T15:11:52.189Z,34.10
2018-07-04T15:14:38.829Z,34.60
2018-07-04T15:17:25.491Z,34.30
2018-07-04T15:20:11.859Z,35.10
2018-07-04T15:26:03.224Z,36.60
2018-07-04T15:28:49.882Z,37.10
2018-07-04T15:31:36.788Z,37.50
2018-07-04T15:34:23.621Z,37.80
2018-07-04T15:37:10.274Z,37.00
2018-07-04T15:39:57.084Z,36.60
2018-07-04T15:42:43.497Z,36.40
2018-07-04T15:45:30.284Z,35.90
2018-07-04T15:48:16.899Z,35.70
2018-07-04T15:51:03.654Z,36.30
2018-07-04T15:53:50.202Z,36.80
2018-07-04T15:59:17.700Z,36.60
2018-07-04T16:02:04.442Z,35.80
2018-07-04T16:04:51.190Z,34.10
2018-07-04T16:07:37.742Z,33.90
2018-07-04T16:10:24.386Z,33.90
2018-07-04T16:13:10.797Z,34.20
2018-07-04T16:15:57.577Z,33.50
2018-07-04T16:18:44.335Z,33.30
2018-07-04T16:21:30.957Z,33.40
2018-07-04T16:24:17.546Z,33.30
2018-07-04T16:27:04.178Z,33.20
2018-07-04T16:29:50.805Z,32.80
2018-07-04T16:32:37.621Z,32.90
2018-07-04T16:35:24.046Z,33.00
2018-07-04T16:38:10.569Z,32.90
2018-07-04T16:40:57.309Z,32.50
2018-07-04T16:43:43.671Z,31.90
2018-07-04T16:46:42.144Z,31.40
2018-07-04T16:49:30.528Z,30.40
2018-07-04T16:52:17.182Z,29.30
2018-07-04T16:55:04.868Z,28.70
2018-07-04T16:57:51.661Z,28.10
2018-07-04T17:00:38.708Z,27.50
2018-07-04T17:03:25.294Z,27.20
2018-07-04T17:06:12.412Z,27.30
2018-07-04T17:08:59.085Z,27.30
2018-07-04T17:11:45.739Z,27.30
2018-07-04T17:14:32.562Z,27.80
2018-07-04T17:17:19.307Z,28.30
2018-07-04T17:20:06.049Z,29.00
2018-07-04T17:22:52.739Z,29.30
2018-07-04T17:25:39.252Z,29.80
2018-07-04T17:28:26.483Z,30.20
2018-07-04T17:31:13.091Z,30.00
2018-07-04T17:33:59.734Z,29.80
2018-07-04T17:36:46.383Z,29.50
2018-07-04T17:39:33.996Z,29.30
2018-07-04T17:42:20.858Z,29.40
2018-07-04T17:45:07.491Z,29.50
2018-07-04T17:47:54.173Z,29.20
2018-07-04T17:50:40.781Z,29.00
2018-07-04T17:53:27.487Z,29.70
2018-07-04T17:56:14.142Z,30.40
2018-07-04T17:59:00.964Z,31.10
2018-07-04T18:01:47.716Z,31.20
2018-07-04T18:04:34.426Z,30.90
2018-07-04T18:07:20.917Z,31.10
2018-07-04T18:10:07.572Z,30.90
2018-07-04T18:12:54.250Z,30.30
2018-07-04T18:15:40.911Z,29.90
2018-07-04T18:18:27.725Z,30.00
2018-07-04T18:21:19.610Z,30.00
2018-07-04T18:24:07.794Z,30.00
2018-07-04T18:26:54.572Z,30.00
2018-07-04T18:29:41.152Z,29.60
2018-07-04T18:32:27.797Z,28.90
2018-07-04T18:35:14.436Z,28.60
2018-07-04T18:38:01.392Z,28.20
2018-07-04T18:40:48.353Z,27.80
2018-07-04T18:43:37.458Z,27.10
2018-07-04T18:49:04.796Z,25.80
2018-07-04T18:51:51.863Z,25.30
2018-07-04T18:54:38.776Z,24.80
2018-07-04T18:57:26.805Z,24.30
2018-07-04T19:00:13.915Z,24.00
2018-07-04T19:03:05.889Z,23.60
2018-07-04T19:05:52.762Z,23.30
2018-07-04T19:08:39.643Z,23.10
2018-07-04T19:11:26.688Z,22.90
2018-07-04T19:14:13.403Z,22.70
2018-07-04T19:17:00.303Z,22.40
2018-07-04T19:19:47.343Z,22.10
2018-07-04T19:22:34.212Z,21.90
2018-07-04T19:25:20.895Z,21.80
2018-07-04T19:28:07.945Z,21.60
2018-07-04T19:30:54.872Z,21.40
2018-07-04T19:33:41.615Z,21.30
2018-07-04T19:36:28.586Z,21.20
2018-07-04T19:39:19.659Z,21.00
2018-07-04T19:42:07.537Z,21.00
2018-07-04T19:44:54.736Z,20.90
2018-07-04T19:47:42.161Z,20.90
2018-07-04T19:50:29.255Z,20.80
2018-07-04T19:56:17.328Z,20.80
2018-07-04T19:59:04.840Z,20.70
2018-07-04T20:01:51.711Z,20.50
2018-07-04T20:04:38.484Z,20.40
2018-07-04T20:07:29.248Z,20.30
2018-07-04T20:10:16.099Z,20.20
2018-07-04T20:13:02.689Z,20.10
2018-07-04T20:15:53.162Z,20.00
2018-07-04T20:18:40.078Z,20.00
2018-07-04T20:21:28.165Z,19.90
2018-07-04T20:24:15.199Z,19.80
2018-07-04T20:27:02.018Z,19.70
2018-07-04T20:29:54.269Z,19.60
2018-07-04T20:32:42.499Z,19.50
2018-07-04T20:35:29.557Z,19.30
2018-07-04T20:38:17.443Z,19.20
2018-07-04T20:41:04.320Z,19.10
2018-07-04T20:43:51.336Z,19.00
2018-07-04T20:46:39.835Z,18.80
2018-07-04T20:49:26.939Z,18.80
2018-07-04T20:52:14.056Z,18.70
2018-07-04T20:55:01.057Z,18.60
2018-07-04T20:57:48.139Z,18.60
2018-07-04T21:00:37.130Z,18.50
2018-07-04T21:03:23.650Z,18.40
2018-07-04T21:06:12.768Z,18.40
2018-07-04T21:09:04.652Z,18.40
2018-07-04T21:11:51.746Z,18.30
2018-07-04T21:14:38.529Z,18.30
2018-07-04T21:17:29.062Z,18.30
2018-07-04T21:20:17.546Z,18.30
2018-07-04T21:23:04.632Z,18.30
2018-07-04T21:25:57.924Z,18.20
2018-07-04T21:28:45.133Z,18.10
2018-07-04T21:31:36.755Z,18.00
2018-07-04T21:34:23.747Z,17.90
2018-07-04T21:37:14.756Z,17.90
2018-07-04T21:40:02.741Z,17.90
2018-07-04T21:42:49.811Z,17.90
2018-07-04T21:45:37.555Z,17.90
2018-07-04T21:48:24.820Z,17.90
2018-07-04T21:51:11.864Z,17.80
2018-07-04T21:53:59.163Z,17.80
2018-07-04T21:56:46.716Z,17.70
2018-07-04T21:59:33.694Z,17.70
2018-07-04T22:05:13.239Z,17.70
2018-07-04T22:08:00.052Z,17.60
2018-07-04T22:10:47.390Z,17.50
2018-07-04T22:13:34.328Z,17.50
2018-07-04T22:16:22.829Z,17.40
2018-07-04T22:19:09.876Z,17.40
2018-07-04T22:21:57.486Z,17.40
2018-07-04T22:24:44.856Z,17.30
2018-07-04T22:27:31.913Z,17.20
2018-07-04T22:30:18.958Z,17.20
2018-07-04T22:33:05.947Z,17.20
2018-07-04T22:35:53.474Z,17.20
2018-07-04T22:38:40.144Z,17.10
2018-07-04T22:41:27.417Z,17.10
2018-07-04T22:44:15.052Z,17.00
2018-07-04T22:47:01.954Z,16.90
2018-07-04T22:49:49.169Z,16.90
2018-07-04T22:52:36.112Z,16.90
2018-07-04T22:55:22.768Z,16.90
2018-07-04T22:58:09.423Z,16.80
2018-07-04T23:01:01.652Z,16.70
2018-07-04T23:03:48.325Z,16.60
2018-07-04T23:06:34.988Z,16.60
2018-07-04T23:09:21.799Z,16.60
2018-07-04T23:12:08.528Z,16.60
2018-07-04T23:17:58.903Z,16.50
2018-07-04T23:20:45.651Z,16.50
2018-07-04T23:23:32.759Z,16.50
2018-07-04T23:26:19.388Z,16.50
2018-07-04T23:29:06.117Z,16.40
2018-07-04T23:31:52.847Z,16.40
2018-07-04T23:34:45.256Z,16.40
2018-07-04T23:37:32.351Z,16.50
2018-07-04T23:40:19.107Z,16.40
2018-07-04T23:43:05.864Z,16.40
2018-07-04T23:45:52.656Z,16.40
2018-07-04T23:48:39.344Z,16.40
2018-07-04T23:51:26.756Z,16.40
2018-07-04T23:54:13.551Z,16.30
2018-07-04T23:57:00.200Z,16.30
2018-07-04T23:59:46.887Z,16.30
